Time;durP1;ratioP1;P1;durP2;ratioP2;P2;SDS_P1;SDS_P2;PMS_P1;PMS_P2;Temp;Humidity;BMP_temperature;BMP_pressure;BME280_temperature;BME280_humidity;BME280_pressure;Samples;Min_cycle;Max_cycle;Signal;HPM_P1;HPM_P2
2022/09/04 08:45:21;;;;;;;;;;;;;;;17.17;79.66;101355.06;4792447;27;8413634;-69
2022/09/04 08:47:58;;;;;;;;;;;;;;;17.80;78.30;101356.88;5099466;27;19959;-67
2022/09/04 08:50:42;;;;;;;;;;;;;;;17.91;78.57;101358.50;5103790;27;19980;-68
2022/09/04 08:59:52;;;;;;;31.65;6.20;;;;;;;24.29;58.92;101366.41;4779771;27;8326335;-62
2022/09/04 09:05:55;;;;;;;10.23;5.25;;;;;;;18.83;72.25;101355.19;4760344;27;8340864;-75
2022/09/04 09:08:50;;;;;;;7.95;6.25;;;;;;;18.56;75.03;101360.06;5045294;28;20064;-75
2022/09/04 09:11:40;;;;;;;13.60;5.25;;;;;;;18.86;73.93;101368.44;4986551;28;20066;-76
2022/09/04 09:14:30;;;;;;;13.32;6.13;;;;;;;18.13;77.29;101361.69;5027725;28;20048;-77
2022/09/04 09:17:11;;;;;;;11.57;7.07;;;;;;;18.04;77.11;101372.44;5039377;28;20056;-76
2022/09/04 09:19:59;;;;;;;9.07;6.03;;;;;;;17.28;79.43;101366.41;5042397;28;20135;-75
2022/09/04 09:22:58;;;;;;;9.15;6.10;;;;;;;17.39;79.73;101360.94;5056122;28;20530;-77
2022/09/04 09:25:51;;;;;;;8.05;6.57;;;;;;;17.35;79.90;101296.47;5033021;28;20157;-76
2022/09/04 09:28:17;;;;;;;7.78;5.20;;;;;;;18.20;77.93;101361.59;5009044;28;20064;-74
2022/09/04 09:31:09;;;;;;;8.48;5.80;;;;;;;18.17;75.79;101364.28;5025228;28;20036;-75
2022/09/04 09:33:47;;;;;;;10.83;5.77;;;;;;;17.87;78.08;101383.34;5041132;28;20041;-78
2022/09/04 09:36:14;;;;;;;12.07;5.97;;;;;;;17.93;77.83;101371.72;5042273;28;20199;-77
2022/09/04 09:39:34;;;;;;;7.75;5.25;;;;;;;17.80;75.99;101320.56;5041635;28;20101;-76
2022/09/04 09:42:36;;;;;;;9.30;5.97;;;;;;;18.55;76.83;101367.16;4996578;28;20161;-76
2022/09/04 09:45:34;;;;;;;9.82;6.38;;;;;;;18.33;74.34;101276.34;4976899;28;20137;-76
2022/09/04 09:48:27;;;;;;;8.20;6.00;;;;;;;19.23;73.36;101357.94;5030757;28;20060;-77
2022/09/04 09:51:15;;;;;;;9.80;6.25;;;;;;;18.85;73.02;101348.94;5040171;28;20076;-76
2022/09/04 09:53:52;;;;;;;9.07;5.55;;;;;;;18.90;72.00;101364.81;5037402;28;20040;-75
2022/09/04 09:56:42;;;;;;;8.27;5.43;;;;;;;18.33;72.49;101209.91;5034078;28;20129;-78
2022/09/04 09:59:45;;;;;;;7.65;5.30;;;;;;;19.23;72.75;101360.59;5035481;28;20094;-76
2022/09/04 10:02:29;;;;;;;6.20;4.55;;;;;;;19.32;70.39;101363.06;5019310;28;20462;-77
2022/09/04 10:05:13;;;;;;;12.68;5.70;;;;;;;19.34;72.34;101369.25;5035287;28;20061;-76
2022/09/04 10:07:56;;;;;;;10.40;6.05;;;;;;;18.97;70.92;101371.78;5018158;28;20056;-78
2022/09/04 10:10:52;;;;;;;10.32;6.55;;;;;;;19.23;69.99;101381.00;5018065;28;20057;-77
2022/09/04 10:13:38;;;;;;;7.82;5.53;;;;;;;19.63;70.29;101381.03;5020586;28;20037;-77
2022/09/04 10:16:41;;;;;;;7.57;5.25;;;;;;;19.50;69.56;101371.56;5011419;28;20065;-78
2022/09/04 10:19:21;;;;;;;8.98;5.43;;;;;;;20.34;69.63;101380.28;5008510;28;20167;-79
2022/09/04 10:22:30;;;;;;;8.50;5.10;;;;;;;20.11;68.61;101361.31;5008695;28;20054;-77
2022/09/04 10:25:08;;;;;;;11.02;6.68;;;;;;;19.63;69.66;101364.19;5007772;28;20048;-77
2022/09/04 10:27:49;;;;;;;9.02;5.72;;;;;;;19.15;71.96;101368.75;5007356;28;20588;-77
2022/09/04 10:30:28;;;;;;;9.65;6.65;;;;;;;19.00;69.81;101350.41;5010532;28;20108;-78
2022/09/04 10:33:25;;;;;;;8.48;5.45;;;;;;;19.14;70.99;101369.63;4985302;28;20057;-78
2022/09/04 10:36:05;;;;;;;12.10;5.75;;;;;;;19.08;72.58;101382.19;4990244;28;20060;-76
2022/09/04 10:42:14;;;;;;;16.45;10.25;;;;;;;19.55;72.68;101365.25;5003749;28;20056;-78
2022/09/04 10:44:43;;;;;;;9.98;5.93;;;;;;;18.83;72.95;101373.81;5007507;28;20496;-75
2022/09/04 10:47:15;;;;;;;9.63;6.10;;;;;;;18.72;72.68;101369.53;5010590;28;20128;-76
2022/09/04 10:49:52;;;;;;;9.13;5.22;;;;;;;18.61;72.95;101374.16;4995951;28;20058;-77
2022/09/04 10:52:39;;;;;;;7.93;5.72;;;;;;;18.38;73.31;101366.59;5012959;28;20025;-78
2022/09/04 10:55:31;;;;;;;12.82;5.75;;;;;;;18.90;72.73;101359.50;5014492;28;20045;-74
2022/09/04 10:58:20;;;;;;;8.82;5.80;;;;;;;19.45;71.28;101360.13;5008539;28;20049;-75
2022/09/04 11:01:22;;;;;;;7.45;4.68;;;;;;;19.25;70.83;101356.13;5011891;28;22291;-75
2022/09/04 11:03:49;;;;;;;11.10;5.00;;;;;;;19.12;70.38;101351.94;5017306;28;20489;-76
2022/09/04 11:06:51;;;;;;;7.32;5.95;;;;;;;19.41;72.47;101356.69;5017774;28;20795;-76
2022/09/04 11:09:46;;;;;;;11.05;5.07;;;;;;;19.50;68.48;101351.16;5017004;28;20756;-76
2022/09/04 11:12:33;;;;;;;12.88;6.25;;;;;;;19.30;69.20;101364.88;5016116;28;20047;-76
2022/09/04 11:15:11;;;;;;;6.95;4.68;;;;;;;18.97;69.26;101242.31;5017460;28;20033;-75
2022/09/04 11:17:52;;;;;;;7.82;4.93;;;;;;;20.02;67.88;101322.47;5016753;28;20044;-75
2022/09/04 11:21:10;;;;;;;6.60;4.43;;;;;;;20.90;65.11;101354.88;5000253;28;20284;-76
2022/09/04 11:23:50;;;;;;;6.28;4.40;;;;;;;20.76;66.50;101358.78;5016789;28;20045;-74
2022/09/04 11:26:25;;;;;;;10.20;4.85;;;;;;;20.76;65.71;101361.44;5016916;28;20270;-75
2022/09/04 11:29:00;;;;;;;7.65;5.05;;;;;;;18.73;66.43;101208.19;5017494;28;20049;-74
2022/09/04 11:31:47;;;;;;;8.73;4.30;;;;;;;20.05;66.27;101341.03;5016554;28;20057;-76
2022/09/04 11:34:47;;;;;;;9.05;4.30;;;;;;;19.54;67.42;101349.28;5016566;28;20058;-77
2022/09/04 11:37:37;;;;;;;7.70;4.30;;;;;;;19.15;66.45;101235.72;5016952;28;20184;-76
2022/09/04 11:40:34;;;;;;;12.18;5.25;;;;;;;19.48;69.10;101338.75;5015265;28;20076;-77
2022/09/04 11:43:48;;;;;;;14.10;5.63;;;;;;;19.27;69.64;101342.75;5017253;28;20053;-76
2022/09/04 11:46:50;;;;;;;9.02;4.78;;;;;;;19.24;69.03;101341.03;5014833;28;20420;-76
2022/09/04 11:49:30;;;;;;;6.80;4.05;;;;;;;20.01;69.14;101352.69;5016423;28;20060;-75
2022/09/04 11:52:15;;;;;;;6.95;5.07;;;;;;;19.97;66.25;101357.22;5017933;28;20397;-76
2022/09/04 11:55:16;;;;;;;6.45;3.97;;;;;;;20.15;69.23;101337.22;5017093;28;20108;-77
2022/09/04 11:58:06;;;;;;;7.68;4.68;;;;;;;19.28;67.53;101332.09;5017463;28;20097;-75
2022/09/04 12:00:57;;;;;;;5.97;4.03;;;;;;;18.90;68.33;101256.63;4996685;28;20045;-74
2022/09/04 12:03:54;;;;;;;6.80;3.67;;;;;;;18.97;69.45;101281.31;5004697;28;20042;-74
2022/09/04 12:06:50;;;;;;;5.93;3.60;;;;;;;18.43;68.91;101164.56;5034072;28;20040;-76
2022/09/04 12:09:50;;;;;;;6.05;3.90;;;;;;;19.18;70.65;101311.94;5034653;28;20094;-76
2022/09/04 12:12:41;;;;;;;9.68;5.00;;;;;;;19.11;67.93;101310.31;5034583;28;20052;-75
2022/09/04 12:15:29;;;;;;;8.93;4.80;;;;;;;18.96;69.72;101319.47;5013530;28;20045;-76
2022/09/04 12:18:07;;;;;;;7.45;3.58;;;;;;;18.85;68.38;101317.03;5017742;28;20040;-75
2022/09/04 12:21:05;;;;;;;8.73;4.20;;;;;;;19.11;67.27;101273.06;5035064;28;20571;-76
2022/09/04 12:24:05;;;;;;;8.13;5.38;;;;;;;19.24;67.75;101311.78;5017371;28;20060;-75
2022/09/04 12:27:21;;;;;;;8.48;4.78;;;;;;;19.67;68.20;101300.19;5028296;28;20052;-76
2022/09/04 12:30:17;;;;;;;6.30;4.35;;;;;;;19.12;69.13;101293.41;4945936;28;20058;-76
2022/09/04 12:32:52;;;;;;;6.63;4.20;;;;;;;19.57;66.48;101293.31;4993220;28;20057;-77
2022/09/04 12:35:20;;;;;;;7.30;4.20;;;;;;;19.50;67.84;101281.94;5021499;28;20099;-76
2022/09/04 12:38:23;;;;;;;8.02;4.82;;;;;;;19.42;67.70;101286.56;5001477;28;20041;-76
2022/09/04 12:41:20;;;;;;;9.05;4.32;;;;;;;19.43;68.24;101306.91;5016318;28;20056;-78
2022/09/04 12:44:07;;;;;;;6.30;4.00;;;;;;;19.35;66.68;101263.66;5010524;28;20057;-77
2022/09/04 12:46:54;;;;;;;6.32;4.22;;;;;;;19.83;65.49;101298.06;5005006;28;20063;-77
2022/09/04 12:49:29;;;;;;;6.38;4.10;;;;;;;20.22;65.37;101295.31;5019340;28;20139;-75
2022/09/04 12:52:22;;;;;;;6.35;4.80;;;;;;;18.94;65.70;101132.44;5021655;28;20041;-79
2022/09/04 12:55:02;;;;;;;5.82;4.75;;;;;;;18.66;66.49;101102.91;5024897;28;20886;-78
2022/09/04 12:57:41;;;;;;;6.47;4.35;;;;;;;20.00;65.05;101295.84;5009237;28;20045;-78
2022/09/04 13:00:17;;;;;;;6.57;4.05;;;;;;;20.43;64.14;101276.06;5009291;28;20060;-77
2022/09/04 13:03:04;;;;;;;6.22;4.57;;;;;;;20.17;65.15;101297.22;5015647;28;20041;-76
2022/09/04 13:06:02;;;;;;;6.90;4.00;;;;;;;20.13;67.19;101288.41;5001789;28;20064;-77
2022/09/04 13:08:48;;;;;;;7.55;4.55;;;;;;;19.87;65.93;101258.91;4986252;28;20033;-81
2022/09/04 13:11:41;;;;;;;11.27;4.90;;;;;;;19.43;64.69;101172.97;5003675;28;20033;-79
2022/09/04 13:14:28;;;;;;;6.82;4.28;;;;;;;20.10;65.44;101284.97;4997042;28;20049;-80
2022/09/04 13:17:13;;;;;;;4.68;3.38;;;;;;;19.16;66.61;101120.38;5001569;28;20033;-76
2022/09/04 13:19:45;;;;;;;5.07;3.33;;;;;;;19.64;65.29;101168.91;5005401;28;20168;-76
2022/09/04 13:22:35;;;;;;;5.93;3.87;;;;;;;19.69;67.52;101295.72;4990950;28;20049;-80
2022/09/04 13:25:14;;;;;;;5.88;3.00;;;;;;;19.96;67.56;101280.84;5001594;28;20405;-79
2022/09/04 13:28:11;;;;;;;7.03;3.92;;;;;;;19.57;67.26;101269.34;5000496;28;20109;-79
2022/09/04 13:30:56;;;;;;;6.75;3.35;;;;;;;19.37;67.62;101257.38;4981607;28;20454;-76
2022/09/04 13:33:38;;;;;;;4.50;3.10;;;;;;;18.34;68.02;101129.28;4978738;28;20080;-78
2022/09/04 13:36:27;;;;;;;5.50;3.13;;;;;;;19.42;68.55;101281.22;4992340;28;20046;-80
2022/09/04 13:39:19;;;;;;;6.20;3.95;;;;;;;19.16;67.68;101280.03;4986848;28;20037;-74
2022/09/04 13:41:53;;;;;;;4.43;3.05;;;;;;;19.40;67.83;101281.25;4984176;28;20092;-78
2022/09/04 13:44:55;;;;;;;5.07;3.08;;;;;;;19.58;67.56;101281.75;4969707;28;20493;-79
2022/09/04 13:47:29;;;;;;;7.10;3.90;;;;;;;19.48;66.93;101285.53;4987277;28;20051;-77
2022/09/04 13:50:16;;;;;;;4.82;3.08;;;;;;;19.55;66.08;101280.03;4984867;28;20037;-77
2022/09/04 13:52:51;;;;;;;5.88;3.35;;;;;;;18.78;66.52;101158.50;4979789;28;20048;-76
2022/09/04 13:55:21;;;;;;;6.22;3.22;;;;;;;19.74;65.60;101298.28;5009315;28;20056;-76
2022/09/04 13:58:02;;;;;;;5.70;3.63;;;;;;;19.59;67.28;101289.69;4998931;28;20094;-76
2022/09/04 14:00:32;;;;;;;4.30;2.78;;;;;;;18.67;68.10;101150.72;5002088;28;20568;-79
2022/09/04 14:03:04;;;;;;;9.27;3.45;;;;;;;19.28;68.15;101292.19;5006596;28;20111;-76
2022/09/04 14:05:33;;;;;;;4.72;2.58;;;;;;;19.18;67.40;101294.16;5009018;28;20176;-77
2022/09/04 14:08:03;;;;;;;5.97;3.40;;;;;;;17.00;67.58;100929.25;5014181;28;20120;-77
2022/09/04 14:11:06;;;;;;;7.00;2.97;;;;;;;18.22;67.70;101157.88;5010905;28;20056;-76
2022/09/04 14:13:56;;;;;;;5.55;3.33;;;;;;;19.07;67.39;101255.41;5015805;28;20053;-76
2022/09/04 14:16:22;;;;;;;7.13;3.85;;;;;;;18.93;66.79;101245.94;4998562;28;20127;-75
2022/09/04 14:18:54;;;;;;;6.07;3.58;;;;;;;19.26;67.38;101282.47;5009728;28;20049;-76
2022/09/04 14:21:44;;;;;;;6.32;3.42;;;;;;;19.18;67.59;101286.19;5016592;28;20061;-77
2022/09/04 14:24:31;;;;;;;4.72;3.38;;;;;;;19.37;66.49;101301.75;5001933;28;20057;-78
2022/09/04 14:27:25;;;;;;;6.85;3.50;;;;;;;19.01;67.39;101248.44;5003391;28;20576;-76
2022/09/04 14:30:04;;;;;;;5.57;2.80;;;;;;;19.43;67.48;101293.63;5018727;28;20053;-77
2022/09/04 14:32:33;;;;;;;4.82;3.63;;;;;;;19.36;67.24;101307.97;4999448;28;20033;-75
2022/09/04 14:35:27;;;;;;;5.18;2.75;;;;;;;19.21;67.64;101298.53;5000453;28;20044;-79
2022/09/04 14:38:31;;;;;;;6.13;3.53;;;;;;;19.40;66.29;101304.34;5008865;28;20124;-77
2022/09/04 14:41:40;;;;;;;6.20;3.30;;;;;;;19.30;68.25;101309.00;5011707;28;21365;-78
2022/09/04 14:44:42;;;;;;;7.30;3.55;;;;;;;19.49;68.29;101321.91;5007012;28;20046;-75
2022/09/04 14:47:30;;;;;;;5.97;3.47;;;;;;;19.26;67.78;101307.31;4959031;28;20129;-77
2022/09/04 14:50:00;;;;;;;5.25;3.47;;;;;;;19.07;68.43;101306.81;5014915;28;20108;-74
2022/09/04 14:52:32;;;;;;;6.05;3.30;;;;;;;18.99;67.80;101306.13;5016510;28;20128;-75
2022/09/04 14:55:00;;;;;;;4.97;3.70;;;;;;;18.99;67.87;101306.13;4999198;28;20049;-76
2022/09/04 14:57:49;;;;;;;4.85;3.15;;;;;;;17.97;67.74;101149.50;5018276;28;20105;-76
2022/09/04 15:00:17;;;;;;;5.38;3.55;;;;;;;18.96;67.50;101308.81;4999775;28;20121;-78
2022/09/04 15:03:01;;;;;;;4.28;3.15;;;;;;;19.11;68.82;101299.66;5018889;28;20569;-74
2022/09/04 15:05:50;;;;;;;5.53;3.00;;;;;;;18.85;67.13;101247.88;5019117;28;20056;-73
2022/09/04 15:08:33;;;;;;;6.03;3.85;;;;;;;18.16;68.63;101147.38;5032951;28;20033;-75
2022/09/04 15:11:07;;;;;;;10.52;3.42;;;;;;;18.24;68.52;101166.66;5036273;28;20028;-75
2022/09/04 15:13:44;;;;;;;13.40;3.55;;;;;;;18.13;68.54;101141.19;5036781;28;20055;-76
2022/09/04 15:16:15;;;;;;;10.90;3.47;;;;;;;19.08;68.21;101305.94;5036359;28;20180;-78
2022/09/04 15:18:40;;;;;;;7.50;3.65;;;;;;;18.98;68.86;101307.00;5034422;28;20098;-75
2022/09/04 15:21:53;;;;;;;7.35;3.92;;;;;;;18.98;69.18;101309.66;5035484;28;20123;-77
2022/09/04 15:24:43;;;;;;;6.90;4.10;;;;;;;18.60;68.61;101254.56;4960666;28;20050;-75
2022/09/04 15:27:29;;;;;;;5.85;3.40;;;;;;;18.87;69.09;101295.69;5031827;28;20293;-74
2022/09/04 15:30:10;;;;;;;7.13;4.75;;;;;;;18.81;69.87;101288.75;5008235;28;20460;-74
2022/09/04 15:32:41;;;;;;;7.20;4.53;;;;;;;18.44;69.16;101254.84;5009302;28;20052;-79
2022/09/04 15:35:15;;;;;;;9.38;4.07;;;;;;;18.55;69.72;101278.59;5012072;28;20037;-77
2022/09/04 15:37:48;;;;;;;14.88;4.00;;;;;;;18.64;70.41;101290.84;5034711;28;20139;-77
2022/09/04 15:40:32;;;;;;;5.40;3.65;;;;;;;18.03;69.72;101198.06;5012920;28;20064;-77
2022/09/04 15:43:04;;;;;;;9.30;4.10;;;;;;;18.76;69.69;101323.41;5030940;28;20056;-76
2022/09/04 15:45:35;;;;;;;8.27;4.30;;;;;;;18.18;69.92;101207.53;5031211;28;20048;-76
2022/09/04 15:48:38;;;;;;;6.68;3.45;;;;;;;18.12;69.12;101197.00;5033630;28;20079;-79
2022/09/04 15:51:21;;;;;;;6.88;3.70;;;;;;;18.77;68.98;101319.81;5029951;28;20562;-77
2022/09/04 15:54:05;;;;;;;7.53;3.80;;;;;;;18.89;68.58;101325.81;5028984;28;20175;-77
2022/09/04 15:56:37;;;;;;;6.78;4.30;;;;;;;18.65;68.66;101311.19;5029485;28;20235;-76
2022/09/04 15:59:13;;;;;;;9.90;3.58;;;;;;;18.66;69.28;101318.25;5034747;28;20473;-75
2022/09/04 16:01:48;;;;;;;6.80;3.35;;;;;;;18.68;69.16;101321.75;5032491;28;20049;-76
2022/09/04 16:04:51;;;;;;;5.68;3.38;;;;;;;18.74;68.92;101311.88;5008375;28;20081;-75
2022/09/04 16:07:40;;;;;;;5.38;3.70;;;;;;;18.66;67.96;101307.59;5009604;28;20046;-76
2022/09/04 16:10:12;;;;;;;20.20;5.05;;;;;;;17.63;66.81;101148.31;5008814;28;20535;-76
2022/09/04 16:12:50;;;;;;;4.88;3.30;;;;;;;18.00;67.29;101183.97;4992536;28;20053;-76
2022/09/04 16:15:29;;;;;;;6.88;3.80;;;;;;;18.36;67.75;101272.75;5015336;28;20417;-75
2022/09/04 16:17:57;;;;;;;5.05;3.20;;;;;;;17.77;67.85;101182.56;5015995;28;20849;-76
2022/09/04 16:20:46;;;;;;;8.10;3.85;;;;;;;17.66;68.33;101155.34;5013902;28;20046;-76
2022/09/04 16:23:16;;;;;;;7.93;5.03;;;;;;;18.03;68.07;101229.06;5014521;28;20470;-75
2022/09/04 16:25:48;;;;;;;9.88;4.07;;;;;;;17.80;69.00;101186.94;5015378;28;20044;-74
2022/09/04 16:28:30;;;;;;;5.15;3.47;;;;;;;17.71;68.31;101175.56;5013733;28;20069;-76
2022/09/04 16:31:05;;;;;;;7.88;4.03;;;;;;;18.42;68.59;101285.03;5016144;28;20584;-77
2022/09/04 16:33:38;;;;;;;5.50;4.25;;;;;;;18.52;68.31;101319.41;5013725;28;20053;-77
2022/09/04 16:36:10;;;;;;;7.68;3.63;;;;;;;18.43;68.55;101295.63;5015291;28;20061;-77
2022/09/04 16:38:51;;;;;;;9.18;4.45;;;;;;;18.04;68.53;101252.06;5014787;28;20064;-76
2022/09/04 16:41:30;;;;;;;5.75;4.03;;;;;;;18.42;69.17;101309.81;4997675;28;20044;-76
2022/09/04 16:44:14;;;;;;;8.30;3.47;;;;;;;18.46;68.87;101308.00;4997624;28;20033;-76
2022/09/04 16:47:21;;;;;;;5.25;4.00;;;;;;;18.45;68.92;101303.56;4996613;28;20037;-76
2022/09/04 16:50:22;;;;;;;7.20;3.40;;;;;;;18.24;69.69;101312.78;4982377;28;20238;-75
2022/09/04 16:53:03;;;;;;;5.90;3.47;;;;;;;18.22;70.03;101328.78;5013143;28;20073;-76
2022/09/04 16:55:38;;;;;;;5.55;3.22;;;;;;;18.16;69.66;101285.50;5014045;28;20053;-76
2022/09/04 16:58:09;;;;;;;5.97;3.75;;;;;;;18.18;70.37;101323.53;4996744;28;20049;-74
2022/09/04 17:01:01;;;;;;;5.13;3.70;;;;;;;18.33;69.46;101304.66;5014508;28;20180;-74
2022/09/04 17:03:50;;;;;;;6.85;4.25;;;;;;;18.24;70.35;101312.78;5014025;28;20184;-76
2022/09/04 17:06:24;;;;;;;6.63;4.57;;;;;;;18.19;70.88;101314.66;5011925;28;20053;-77
2022/09/04 17:09:03;;;;;;;6.88;4.78;;;;;;;17.45;71.88;101177.81;4997742;28;20140;-78
2022/09/04 17:11:50;;;;;;;6.90;5.15;;;;;;;18.11;71.69;101315.66;5012507;28;20029;-75
2022/09/04 17:14:25;;;;;;;7.30;4.93;;;;;;;17.67;71.48;101253.50;5014025;28;20125;-77
2022/09/04 17:17:03;;;;;;;7.82;5.15;;;;;;;17.27;71.87;101198.38;5014803;28;20037;-77
2022/09/04 17:19:29;;;;;;;7.95;4.90;;;;;;;17.97;71.89;101324.78;5011838;28;20124;-77
2022/09/04 17:25:21;;;;;;;14.05;5.13;;;;;;;17.30;71.83;101226.66;5014959;28;20131;-74
2022/09/04 17:27:56;;;;;;;10.90;4.80;;;;;;;18.06;72.25;101345.88;5015899;28;20084;-76
2022/09/04 17:30:47;;;;;;;9.15;5.18;;;;;;;17.91;72.79;101357.59;5018782;28;20060;-77
2022/09/04 17:33:31;;;;;;;8.35;4.80;;;;;;;17.88;74.35;101342.59;5018626;28;20057;-76
2022/09/04 17:36:11;;;;;;;9.18;6.00;;;;;;;17.50;74.44;101275.00;5010134;28;20898;-77
2022/09/04 17:39:01;;;;;;;14.57;4.68;;;;;;;16.93;75.61;101195.38;5016059;28;20761;-77
2022/09/04 17:41:49;;;;;;;10.27;5.93;;;;;;;17.03;75.58;101210.25;5015743;28;20100;-74
2022/09/04 17:44:30;;;;;;;8.43;4.93;;;;;;;17.71;77.75;101363.19;5014158;28;20041;-78
2022/09/04 17:47:05;;;;;;;8.77;5.75;;;;;;;17.61;79.16;101366.88;4997336;28;20577;-76
2022/09/04 17:49:33;;;;;;;6.10;4.72;;;;;;;17.48;80.41;101353.75;5016075;28;20061;-74
2022/09/04 17:52:02;;;;;;;15.05;6.20;;;;;;;16.78;79.69;101230.84;5015351;28;20053;-75
2022/09/04 17:54:35;;;;;;;12.68;5.30;;;;;;;17.51;79.84;101376.72;5016114;28;20104;-77
2022/09/04 17:57:08;;;;;;;9.18;5.97;;;;;;;17.37;80.25;101373.34;5015953;28;20050;-75
2022/09/04 17:59:51;;;;;;;8.23;5.07;;;;;;;16.63;80.11;101247.81;4999052;28;20041;-76
2022/09/04 18:02:28;;;;;;;10.32;5.35;;;;;;;16.87;80.58;101282.91;5016447;28;20074;-76
2022/09/04 18:05:03;;;;;;;9.65;5.68;;;;;;;17.46;80.35;101373.25;5016845;28;20080;-76
2022/09/04 18:07:34;;;;;;;8.98;5.57;;;;;;;17.40;80.54;101382.16;5016377;28;20107;-77
2022/09/04 18:10:52;;;;;;;7.15;5.25;;;;;;;17.45;80.04;101382.13;5018580;28;20124;-76
2022/09/04 18:13:34;;;;;;;8.02;5.00;;;;;;;17.31;81.79;101382.28;4999796;28;20038;-77
2022/09/04 18:16:18;;;;;;;21.63;6.07;;;;;;;17.35;82.03;101393.72;5018854;28;20144;-75
2022/09/04 18:18:51;;;;;;;;;;;;;;;17.23;82.45;101371.78;5017246;28;20049;-77
2022/09/04 18:21:23;;;;;;;8.75;5.22;;;;;;;17.33;82.43;101392.88;5017193;28;20392;-75
2022/09/04 18:23:59;;;;;;;14.43;5.40;;;;;;;16.56;81.96;101234.69;5015762;28;20049;-77
2022/09/04 18:26:33;;;;;;;11.55;5.43;;;;;;;16.39;81.86;101219.84;5019532;28;20058;-75
2022/09/04 18:29:17;;;;;;;9.93;6.57;;;;;;;17.19;82.00;101346.19;5014992;28;20038;-77
2022/09/04 18:31:51;;;;;;;10.77;6.22;;;;;;;16.59;82.36;101275.25;5016577;28;20045;-76
2022/09/04 18:34:22;;;;;;;6.80;5.78;;;;;;;17.15;83.41;101402.78;4997547;28;20038;-76
2022/09/04 18:37:02;;;;;;;10.98;5.63;;;;;;;16.50;82.94;101250.63;5016731;28;20565;-76
2022/09/04 18:39:46;;;;;;;11.65;6.60;;;;;;;16.48;83.51;101273.59;5010379;28;20037;-76
2022/09/04 18:42:29;;;;;;;8.55;5.70;;;;;;;16.99;85.00;101391.47;5011680;28;20765;-75
2022/09/04 18:45:00;;;;;;;10.05;6.18;;;;;;;16.76;86.01;101396.09;5012713;28;20926;-78
2022/09/04 18:47:38;;;;;;;9.45;6.47;;;;;;;16.86;85.88;101398.69;5011502;28;20029;-77
2022/09/04 18:50:05;;;;;;;13.25;6.75;;;;;;;16.68;86.45;101380.28;5012822;28;20045;-77
2022/09/04 18:52:43;;;;;;;14.82;7.20;;;;;;;16.93;86.04;101419.81;5011772;28;20420;-76
2022/09/04 18:55:40;;;;;;;8.68;6.38;;;;;;;16.82;86.81;101412.00;5013255;28;20053;-77
2022/09/04 18:58:37;;;;;;;16.60;7.35;;;;;;;16.80;86.43;101414.66;4938611;28;20046;-75
2022/09/04 19:01:25;;;;;;;10.35;6.25;;;;;;;16.80;86.65;101417.28;5007934;28;20045;-76
2022/09/04 19:03:54;;;;;;;11.85;6.10;;;;;;;15.92;86.36;101283.81;4983064;28;20413;-76
2022/09/04 19:06:35;;;;;;;11.57;6.50;;;;;;;16.02;86.11;101277.59;5018740;28;20131;-79
2022/09/04 19:09:22;;;;;;;12.48;8.43;;;;;;;16.44;87.13;101394.66;5024492;28;20481;-77
2022/09/04 19:12:07;;;;;;;14.07;7.65;;;;;;;16.55;86.95;101391.88;5023723;28;20102;-76
2022/09/04 19:14:42;;;;;;;10.02;6.68;;;;;;;16.50;87.25;101410.47;5019255;28;20054;-81
2022/09/04 19:17:17;;;;;;;10.98;5.75;;;;;;;16.46;88.00;101406.09;5026597;28;20107;-77
2022/09/04 19:20:05;;;;;;;9.27;7.20;;;;;;;16.43;87.80;101404.34;5008281;28;20061;-77
2022/09/04 19:22:38;;;;;;;10.35;8.07;;;;;;;16.19;88.27;101372.75;5007905;28;20138;-78
2022/09/04 19:25:12;;;;;;;12.50;8.35;;;;;;;15.33;88.47;101227.78;5017077;28;20133;-78
2022/09/04 19:28:06;;;;;;;10.65;6.43;;;;;;;16.29;89.15;101408.00;5020135;28;20057;-77
2022/09/04 19:31:07;;;;;;;11.20;8.40;;;;;;;16.35;89.13;101400.88;5021074;28;20060;-77
2022/09/04 19:33:49;;;;;;;10.50;7.43;;;;;;;16.17;89.25;101380.72;5024810;28;20106;-76
2022/09/04 19:36:17;;;;;;;12.43;7.45;;;;;;;16.28;89.32;101396.53;5021362;28;20045;-78
2022/09/04 19:38:47;;;;;;;11.93;7.20;;;;;;;16.21;89.52;101398.34;5028890;28;20128;-78
2022/09/04 19:41:22;;;;;;;10.20;7.00;;;;;;;15.53;89.70;101294.66;5024719;28;20029;-78
2022/09/04 19:44:07;;;;;;;10.65;7.63;;;;;;;15.20;89.69;101234.94;5009852;28;21235;-77
2022/09/04 19:46:51;;;;;;;10.95;7.28;;;;;;;16.19;89.51;101408.06;5021217;28;20064;-78
2022/09/04 19:49:48;;;;;;;13.52;7.50;;;;;;;16.06;89.99;101413.44;5017075;28;20064;-77
2022/09/04 19:52:22;;;;;;;8.65;6.63;;;;;;;16.16;89.45;101407.22;5006912;28;20060;-78
2022/09/04 19:54:59;;;;;;;13.02;7.43;;;;;;;16.11;89.51;101417.84;5025384;28;20088;-78
2022/09/04 19:57:38;;;;;;;10.85;7.30;;;;;;;15.98;90.19;101411.72;5022405;28;20414;-79
2022/09/04 20:00:04;;;;;;;10.50;6.47;;;;;;;15.93;90.30;101425.91;5021056;28;20045;-78
2022/09/04 20:02:44;;;;;;;10.38;6.30;;;;;;;15.90;90.75;101413.56;5022412;28;20025;-78
2022/09/04 20:05:36;;;;;;;10.52;7.25;;;;;;;15.97;90.55;101417.06;5021718;28;20159;-78
2022/09/04 20:08:40;;;;;;;12.90;6.32;;;;;;;16.07;90.37;101416.09;5002904;28;20049;-79
2022/09/04 20:11:09;;;;;;;;;;;;;;;16.01;90.66;101411.72;5016532;28;20049;-77
2022/09/04 20:13:42;;;;;;;9.60;6.47;;;;;;;16.06;90.44;101421.38;5010311;28;19924;-77
2022/09/04 20:16:49;;;;;;;10.77;6.97;;;;;;;16.03;90.38;101419.66;4984670;28;20840;-78
2022/09/04 20:19:22;;;;;;;11.43;6.30;;;;;;;16.02;90.47;101420.56;5005866;28;20051;-77
2022/09/04 20:22:26;;;;;;;10.60;7.07;;;;;;;16.04;90.21;101421.41;5007836;28;20099;-78
2022/09/04 20:25:03;;;;;;;8.38;6.43;;;;;;;15.03;90.79;101265.84;5003749;28;20578;-78
2022/09/04 20:27:45;;;;;;;9.88;6.00;;;;;;;15.80;90.77;101385.38;5005665;28;20112;-77
2022/09/04 20:30:23;;;;;;;9.63;6.82;;;;;;;16.08;90.71;101427.56;4984802;28;20053;-79
2022/09/04 20:32:54;;;;;;;14.02;6.63;;;;;;;15.12;90.57;101263.16;5007206;28;20053;-79
2022/09/04 20:35:51;;;;;;;12.07;7.50;;;;;;;16.12;90.73;101416.94;5005585;28;20112;-76
2022/09/04 20:38:32;;;;;;;9.48;6.18;;;;;;;15.76;93.24;101439.22;5009961;28;20030;-75
2022/09/04 20:41:10;;;;;;;14.02;6.45;;;;;;;15.26;91.88;101310.69;5008908;28;20042;-75
2022/09/04 20:43:47;;;;;;;10.07;7.55;;;;;;;15.87;92.93;101400.31;5007277;28;20111;-76
2022/09/04 20:46:22;;;;;;;12.20;7.38;;;;;;;15.66;93.99;101405.72;5008137;28;20049;-76
2022/09/04 20:49:05;;;;;;;12.60;8.55;;;;;;;15.72;94.59;101411.00;5008083;28;20046;-76
2022/09/04 20:51:33;;;;;;;11.60;7.68;;;;;;;15.39;94.59;101360.00;5007682;28;20041;-76
2022/09/04 20:54:20;;;;;;;13.43;9.15;;;;;;;15.63;95.39;101439.22;5003544;28;20045;-76
2022/09/04 20:57:05;;;;;;;10.48;8.13;;;;;;;15.70;95.30;101412.75;5004075;28;20195;-76
2022/09/04 20:59:39;;;;;;;11.23;8.20;;;;;;;15.61;95.34;101419.81;4988385;28;20160;-77
2022/09/04 21:02:29;;;;;;;13.15;8.00;;;;;;;15.59;94.99;101371.34;5009836;28;20033;-76
2022/09/04 21:05:15;;;;;;;13.23;9.00;;;;;;;15.60;95.13;101411.91;5009743;28;20128;-80
2022/09/04 21:07:46;;;;;;;11.45;8.68;;;;;;;15.52;95.78;101379.31;5006969;28;20056;-78
2022/09/04 21:10:30;;;;;;;19.73;10.75;;;;;;;15.61;95.90;101425.13;5008729;28;20057;-78
2022/09/04 21:13:12;;;;;;;15.30;9.48;;;;;;;15.17;96.58;101335.38;5007453;28;20056;-80
2022/09/04 21:15:38;;;;;;;14.20;10.07;;;;;;;14.66;97.58;101277.44;5007512;28;20488;-78
2022/09/04 21:18:15;;;;;;;12.93;10.15;;;;;;;15.48;97.70;101410.22;5009703;28;20103;-79
2022/09/04 21:20:59;;;;;;;16.30;9.75;;;;;;;15.36;98.35;101404.97;5010062;28;21302;-82
2022/09/04 21:24:03;;;;;;;15.85;11.82;;;;;;;15.46;98.17;101411.97;5014840;28;20194;-85
2022/09/04 21:26:44;;;;;;;18.67;11.70;;;;;;;15.38;98.78;101401.44;5018566;28;20963;-83
2022/09/04 21:29:49;;;;;;;18.90;11.35;;;;;;;15.10;98.84;101392.72;5016856;28;20029;-84
2022/09/04 21:32:45;;;;;;;17.15;12.23;;;;;;;15.28;99.83;101406.75;5012934;28;20041;-84
2022/09/04 21:35:13;;;;;;;17.50;12.57;;;;;;;15.32;99.23;101400.56;4995355;28;21355;-75
2022/09/04 21:37:39;;;;;;;17.13;13.82;;;;;;;14.58;99.67;101292.41;5032367;28;20029;-77
2022/09/04 21:40:40;;;;;;;18.58;11.93;;;;;;;15.19;99.83;101402.38;5031304;28;20567;-78